createdAt,value
2019-05-17T00:02:17.326Z,47.63
2019-05-17T00:04:43.903Z,47.07
2019-05-17T00:07:11.252Z,49.83
2019-05-17T00:09:38.587Z,48.43
2019-05-17T00:12:07.559Z,51.47
2019-05-17T00:14:36.545Z,53.60
2019-05-17T00:17:06.479Z,51.23
2019-05-17T00:19:33.093Z,48.33
2019-05-17T00:22:00.517Z,48.63
2019-05-17T00:24:27.865Z,52.30
2019-05-17T00:26:55.190Z,48.47
2019-05-17T00:29:22.549Z,49.73
2019-05-17T00:31:49.935Z,53.47
2019-05-17T00:34:17.285Z,51.43
2019-05-17T00:36:46.773Z,55.93
2019-05-17T00:39:13.626Z,50.10
2019-05-17T00:41:40.949Z,53.43
2019-05-17T00:44:08.297Z,50.57
2019-05-17T00:46:37.238Z,46.60
2019-05-17T00:49:06.499Z,49.13
2019-05-17T00:51:34.001Z,48.23
2019-05-17T00:54:01.373Z,49.53
2019-05-17T00:56:28.768Z,50.77
2019-05-17T00:58:56.815Z,46.60
2019-05-17T01:01:24.462Z,58.63
2019-05-17T01:03:51.857Z,55.53
2019-05-17T01:06:19.273Z,53.33
2019-05-17T01:08:59.392Z,55.97
2019-05-17T01:11:16.499Z,58.63
2019-05-17T01:13:44.105Z,60.17
2019-05-17T01:16:11.516Z,56.00
2019-05-17T01:18:38.852Z,61.50
2019-05-17T01:21:06.604Z,62.03
2019-05-17T01:23:36.124Z,60.80
2019-05-17T01:26:02.974Z,64.67
2019-05-17T01:28:30.322Z,61.30
2019-05-17T01:30:57.641Z,62.40
2019-05-17T01:33:26.452Z,62.67
2019-05-17T01:35:53.999Z,70.57
2019-05-17T01:38:21.325Z,60.10
2019-05-17T01:40:48.686Z,62.67
2019-05-17T01:43:16.681Z,63.20
2019-05-17T01:45:44.229Z,57.90
2019-05-17T01:48:11.585Z,59.00
2019-05-17T01:50:38.976Z,57.57
2019-05-17T01:53:07.454Z,61.27
2019-05-17T01:55:37.178Z,56.77
2019-05-17T01:58:03.902Z,58.87
2019-05-17T02:00:31.216Z,60.77
2019-05-17T02:02:58.572Z,58.37
2019-05-17T02:05:27.389Z,58.50
2019-05-17T02:07:56.964Z,59.10
2019-05-17T02:10:23.996Z,62.20
2019-05-17T02:12:51.338Z,64.47
2019-05-17T02:15:18.728Z,58.47
2019-05-17T02:17:46.868Z,60.43
2019-05-17T02:20:16.854Z,57.37
2019-05-17T02:22:43.498Z,56.97
2019-05-17T02:25:11.498Z,59.33
2019-05-17T02:27:43.991Z,61.57
2019-05-17T02:30:08.496Z,63.83
2019-05-17T02:32:35.859Z,57.50
2019-05-17T02:35:03.643Z,59.53
2019-05-17T02:37:33.450Z,61.23
2019-05-17T02:40:04.683Z,60.07
2019-05-17T02:42:29.110Z,59.50
2019-05-17T02:44:56.515Z,63.10
2019-05-17T02:47:23.862Z,57.47
2019-05-17T02:49:52.498Z,57.70
2019-05-17T02:52:22.799Z,54.93
2019-05-17T02:54:49.825Z,57.40
2019-05-17T02:57:17.971Z,56.43
2019-05-17T02:59:45.428Z,59.93
2019-05-17T03:02:12.931Z,63.20
2019-05-17T03:04:43.290Z,67.87
2019-05-17T03:07:13.277Z,58.77
2019-05-17T03:09:38.429Z,59.63
2019-05-17T03:12:05.852Z,60.97
2019-05-17T03:14:34.334Z,63.83
2019-05-17T03:17:03.365Z,55.93
2019-05-17T03:19:32.774Z,59.00
2019-05-17T03:22:04.199Z,65.47
2019-05-17T03:24:28.674Z,65.60
2019-05-17T03:26:56.024Z,63.60
2019-05-17T03:29:23.350Z,70.73
2019-05-17T03:31:58.962Z,67.43
2019-05-17T03:34:25.754Z,67.03
2019-05-17T03:36:55.680Z,74.97
2019-05-17T03:39:18.588Z,78.30
2019-05-17T03:41:45.917Z,67.23
2019-05-17T03:44:13.799Z,74.23
2019-05-17T03:46:42.533Z,76.50
2019-05-17T03:49:13.003Z,77.97
2019-05-17T03:51:42.355Z,79.40
2019-05-17T03:54:08.296Z,75.17
2019-05-17T03:56:35.615Z,78.53
2019-05-17T03:59:03.751Z,76.73
2019-05-17T04:01:32.810Z,83.43
2019-05-17T04:04:02.863Z,79.30
2019-05-17T04:06:29.324Z,79.70
2019-05-17T04:08:56.689Z,91.27
2019-05-17T04:11:31.419Z,92.17
2019-05-17T04:13:53.812Z,95.97
2019-05-17T04:16:23.784Z,89.50
2019-05-17T04:18:53.286Z,101.63
2019-05-17T04:21:19.479Z,92.57
2019-05-17T04:23:46.826Z,95.20
2019-05-17T04:26:14.339Z,100.63
2019-05-17T04:28:44.016Z,105.43
2019-05-17T04:31:13.247Z,106.60
2019-05-17T04:33:42.623Z,111.97
2019-05-17T04:36:08.664Z,110.03
2019-05-17T04:38:36.091Z,119.43
2019-05-17T04:41:03.714Z,124.63
2019-05-17T04:43:33.462Z,125.07
2019-05-17T04:46:02.778Z,131.77
2019-05-17T04:48:32.306Z,120.83
2019-05-17T04:50:58.150Z,128.23
2019-05-17T04:53:25.561Z,118.40
2019-05-17T04:55:54.130Z,122.27
2019-05-17T04:58:23.207Z,121.40
2019-05-17T05:00:53.714Z,121.43
2019-05-17T05:03:22.923Z,117.50
2019-05-17T05:05:48.794Z,120.57
2019-05-17T05:08:16.227Z,125.60
2019-05-17T05:10:43.559Z,127.63
2019-05-17T05:13:13.355Z,123.97
2019-05-17T05:15:43.379Z,113.83
2019-05-17T05:18:12.922Z,115.73
2019-05-17T05:20:38.847Z,106.43
2019-05-17T05:23:06.250Z,105.43
2019-05-17T05:25:33.598Z,114.50
2019-05-17T05:28:02.487Z,115.93
2019-05-17T05:30:31.970Z,114.43
2019-05-17T05:32:59.069Z,110.53
2019-05-17T05:35:26.422Z,120.63
2019-05-17T05:37:53.816Z,114.00
2019-05-17T05:40:21.418Z,111.63
2019-05-17T05:42:48.863Z,123.50
2019-05-17T05:45:16.352Z,109.53
2019-05-17T05:47:43.774Z,132.87
2019-05-17T05:50:12.555Z,121.07
2019-05-17T05:52:42.312Z,117.73
2019-05-17T05:55:09.195Z,113.57
2019-05-17T05:57:36.605Z,106.27
2019-05-17T06:00:07.180Z,99.10
2019-05-17T06:02:34.597Z,100.97
2019-05-17T06:05:02.253Z,110.20
2019-05-17T06:07:32.045Z,102.70
2019-05-17T06:09:58.664Z,95.03
2019-05-17T06:12:28.158Z,97.57
2019-05-17T06:14:54.996Z,92.97
2019-05-17T06:17:22.351Z,95.50
2019-05-17T06:19:51.568Z,95.57
2019-05-17T06:22:18.685Z,89.33
2019-05-17T06:24:46.011Z,95.77
2019-05-17T06:27:13.347Z,95.03
2019-05-17T06:29:41.518Z,90.20
2019-05-17T06:32:11.695Z,100.10
2019-05-17T06:34:38.042Z,99.50
2019-05-17T06:37:05.471Z,101.63
2019-05-17T06:39:33.057Z,105.47
2019-05-17T06:42:02.572Z,116.67
2019-05-17T06:44:29.607Z,112.00
2019-05-17T06:46:56.963Z,106.97
2019-05-17T06:49:24.315Z,121.77
2019-05-17T06:51:51.711Z,132.03
2019-05-17T06:54:21.443Z,121.93
2019-05-17T06:56:48.373Z,117.63
2019-05-17T06:59:15.716Z,110.27
2019-05-17T07:01:43.068Z,117.57
2019-05-17T07:04:10.500Z,112.67
2019-05-17T07:06:40.940Z,116.23
2019-05-17T07:09:10.030Z,109.17
2019-05-17T07:11:39.680Z,108.53
2019-05-17T07:14:06.590Z,105.50
2019-05-17T07:16:33.958Z,102.47
2019-05-17T07:19:01.352Z,105.67
2019-05-17T07:21:29.749Z,103.80
2019-05-17T07:23:59.264Z,91.63
2019-05-17T07:26:26.290Z,87.23
2019-05-17T07:28:53.612Z,93.90
2019-05-17T07:31:23.149Z,84.60
2019-05-17T07:33:50.457Z,98.00
2019-05-17T07:36:19.718Z,91.63
2019-05-17T07:38:47.169Z,94.50
2019-05-17T07:41:14.521Z,94.70
2019-05-17T07:43:41.909Z,92.43
2019-05-17T07:46:09.679Z,92.93
2019-05-17T07:48:37.200Z,89.27
2019-05-17T07:51:04.590Z,84.40
2019-05-17T07:53:31.920Z,74.27
2019-05-17T07:55:59.788Z,71.70
2019-05-17T07:58:27.171Z,77.77
2019-05-17T08:00:54.586Z,77.67
2019-05-17T08:03:24.863Z,73.00
2019-05-17T08:05:51.386Z,76.03
2019-05-17T08:08:20.808Z,78.13
2019-05-17T08:10:47.765Z,70.77
2019-05-17T08:13:25.497Z,63.23
2019-05-17T08:15:44.208Z,59.80
2019-05-17T08:18:11.550Z,57.70
2019-05-17T08:20:40.040Z,49.10
2019-05-17T08:23:10.213Z,58.27
2019-05-17T08:25:49.742Z,52.93
2019-05-17T08:28:05.801Z,49.83
2019-05-17T08:30:33.117Z,55.80
2019-05-17T08:33:01.004Z,55.37
2019-05-17T08:35:30.443Z,54.10
2019-05-17T08:38:00.363Z,51.60
2019-05-17T08:40:26.800Z,50.77
2019-05-17T08:42:54.133Z,47.03
2019-05-17T08:45:21.459Z,51.17
2019-05-17T08:47:50.045Z,51.10
2019-05-17T08:50:19.845Z,54.07
2019-05-17T08:52:46.495Z,48.97
2019-05-17T08:55:13.935Z,48.23
2019-05-17T08:57:41.295Z,45.37
2019-05-17T09:00:10.548Z,45.60
2019-05-17T09:02:40.477Z,49.43
2019-05-17T09:05:06.789Z,41.17
2019-05-17T09:07:34.106Z,49.17
2019-05-17T09:10:02.037Z,57.90
2019-05-17T09:12:30.075Z,51.33
2019-05-17T09:14:57.595Z,47.60
2019-05-17T09:17:24.927Z,45.40
2019-05-17T09:19:54.340Z,49.83
2019-05-17T09:22:21.324Z,47.07
2019-05-17T09:24:50.018Z,49.37
2019-05-17T09:27:19.603Z,45.30
2019-05-17T09:29:46.581Z,43.53
2019-05-17T09:32:13.935Z,44.90
2019-05-17T09:34:41.263Z,45.60
2019-05-17T09:37:09.864Z,39.97
2019-05-17T09:39:37.455Z,42.83
2019-05-17T09:42:04.781Z,42.87
2019-05-17T09:44:32.212Z,47.20
2019-05-17T09:46:59.622Z,42.53
2019-05-17T09:49:26.967Z,42.17
2019-05-17T09:51:54.311Z,39.50
2019-05-17T09:54:31.957Z,41.50
2019-05-17T09:56:50.812Z,37.40
2019-05-17T09:59:20.272Z,32.03
2019-05-17T10:01:49.387Z,36.63
2019-05-17T10:04:16.173Z,34.77
2019-05-17T10:06:43.495Z,33.97
2019-05-17T10:09:10.922Z,34.03
2019-05-17T10:11:39.919Z,36.27
2019-05-17T10:14:07.231Z,37.63
2019-05-17T10:16:34.662Z,35.17
2019-05-17T10:19:02.057Z,35.00
2019-05-17T10:21:30.329Z,35.17
2019-05-17T10:24:00.014Z,34.33
2019-05-17T10:26:26.707Z,35.00
2019-05-17T10:28:54.058Z,30.77
2019-05-17T10:31:21.455Z,31.93
2019-05-17T10:33:49.491Z,31.47
2019-05-17T10:36:16.978Z,33.70
2019-05-17T10:38:44.354Z,29.97
2019-05-17T10:41:11.668Z,29.00
2019-05-17T10:43:39.325Z,25.50
2019-05-17T10:46:06.727Z,28.40
2019-05-17T10:48:34.266Z,33.57
2019-05-17T10:51:01.732Z,29.87
2019-05-17T10:53:29.716Z,26.93
2019-05-17T10:55:57.387Z,26.80
2019-05-17T10:58:24.723Z,32.03
2019-05-17T11:00:52.139Z,28.00
2019-05-17T11:03:20.337Z,26.90
2019-05-17T11:05:50.081Z,27.17
2019-05-17T11:08:16.894Z,26.20
2019-05-17T11:10:44.599Z,27.90
2019-05-17T11:13:11.985Z,25.93
2019-05-17T11:15:39.309Z,26.07
2019-05-17T11:18:06.710Z,25.73
2019-05-17T11:20:34.065Z,25.23
2019-05-17T11:23:01.474Z,24.57
2019-05-17T11:25:28.841Z,29.53
2019-05-17T11:27:56.141Z,26.60
2019-05-17T11:30:23.601Z,25.93
2019-05-17T11:32:50.956Z,23.63
2019-05-17T11:35:18.268Z,24.53
2019-05-17T11:37:45.606Z,23.87
2019-05-17T11:40:12.946Z,20.97
2019-05-17T11:42:40.419Z,20.07
2019-05-17T11:45:07.872Z,22.50
2019-05-17T11:47:35.359Z,22.87
2019-05-17T11:50:03.004Z,13.47
2019-05-17T11:52:30.364Z,13.13
2019-05-17T11:54:57.767Z,14.60
2019-05-17T11:57:25.146Z,19.93
2019-05-17T11:59:52.503Z,18.73
2019-05-17T12:02:21.585Z,21.37
2019-05-17T12:04:48.976Z,22.50
2019-05-17T12:07:16.290Z,21.50
2019-05-17T12:09:43.710Z,18.83
2019-05-17T12:12:11.067Z,18.87
2019-05-17T12:14:39.864Z,16.77
2019-05-17T12:17:07.096Z,19.03
2019-05-17T12:19:37.055Z,14.33
2019-05-17T12:22:03.480Z,19.87
2019-05-17T12:24:30.912Z,20.00
2019-05-17T12:26:58.352Z,16.13
2019-05-17T12:29:25.673Z,19.37
2019-05-17T12:31:53.001Z,15.57
2019-05-17T12:34:20.426Z,17.53
2019-05-17T12:36:47.769Z,22.30
2019-05-17T12:39:15.088Z,16.83
2019-05-17T12:41:42.732Z,17.40
2019-05-17T12:44:10.106Z,15.63
2019-05-17T12:46:37.460Z,12.10
2019-05-17T12:49:04.858Z,16.43
2019-05-17T12:51:33.036Z,15.43
2019-05-17T12:54:00.529Z,15.97
2019-05-17T12:56:27.866Z,17.17
2019-05-17T12:58:55.215Z,15.20
2019-05-17T13:01:22.560Z,16.87
2019-05-17T13:03:49.927Z,16.67
2019-05-17T13:06:17.233Z,15.00
2019-05-17T13:08:45.201Z,15.87
2019-05-17T13:11:12.512Z,14.20
2019-05-17T13:13:39.848Z,14.03
2019-05-17T13:16:17.464Z,15.50
2019-05-17T13:18:36.220Z,13.63
2019-05-17T13:21:03.571Z,13.73
2019-05-17T13:23:30.923Z,14.23
2019-05-17T13:25:58.239Z,14.07
2019-05-17T13:28:25.569Z,13.47
2019-05-17T13:30:52.886Z,12.63
2019-05-17T13:33:20.301Z,14.33
2019-05-17T13:35:48.011Z,13.63
2019-05-17T13:38:15.333Z,13.47
2019-05-17T13:40:42.671Z,12.67
2019-05-17T13:43:10.061Z,13.30
2019-05-17T13:45:37.361Z,12.17
2019-05-17T13:48:04.721Z,14.87
2019-05-17T13:50:32.055Z,14.53
2019-05-17T13:52:59.438Z,14.37
2019-05-17T13:55:26.754Z,12.40
2019-05-17T13:57:54.134Z,14.40
2019-05-17T14:00:21.571Z,12.90
2019-05-17T14:02:49.192Z,14.38
2019-05-17T14:05:16.577Z,13.35
2019-05-17T14:07:43.901Z,14.53
2019-05-17T14:10:26.400Z,12.13
2019-05-17T14:12:41.923Z,14.00
2019-05-17T14:15:09.306Z,13.57
2019-05-17T14:17:36.691Z,12.98
2019-05-17T14:20:04.477Z,14.03
2019-05-17T14:22:31.801Z,11.80
2019-05-17T14:24:59.212Z,9.47
2019-05-17T14:27:26.672Z,9.97
2019-05-17T14:29:54.008Z,8.80
2019-05-17T14:32:21.336Z,10.60
2019-05-17T14:34:48.637Z,9.63
2019-05-17T14:37:15.993Z,11.53
2019-05-17T14:39:43.737Z,10.13
2019-05-17T14:42:11.090Z,10.27
2019-05-17T14:44:38.463Z,13.30
2019-05-17T14:47:05.788Z,11.13
2019-05-17T14:49:33.126Z,11.53
2019-05-17T14:52:00.448Z,11.03
2019-05-17T14:54:27.784Z,11.12
2019-05-17T14:56:55.103Z,10.70
2019-05-17T14:59:22.456Z,10.37
2019-05-17T15:01:49.904Z,12.33
2019-05-17T15:04:17.240Z,12.97
2019-05-17T15:06:44.594Z,15.13
2019-05-17T15:09:12.009Z,14.10
2019-05-17T15:11:39.382Z,17.77
2019-05-17T15:14:06.705Z,16.53
2019-05-17T15:16:34.079Z,15.37
2019-05-17T15:19:01.400Z,14.87
2019-05-17T15:21:28.770Z,14.70
2019-05-17T15:23:56.114Z,14.93
2019-05-17T15:26:23.510Z,13.93
2019-05-17T15:28:50.952Z,11.80
2019-05-17T15:31:18.328Z,11.13
2019-05-17T15:33:45.685Z,11.40
2019-05-17T15:36:13.070Z,11.90
2019-05-17T15:38:40.480Z,13.33
2019-05-17T15:41:07.796Z,12.10
2019-05-17T15:43:35.147Z,11.63
2019-05-17T15:46:02.465Z,12.17
2019-05-17T15:48:29.806Z,11.23
2019-05-17T15:50:57.591Z,13.53
2019-05-17T15:53:25.014Z,12.03
2019-05-17T15:55:52.355Z,13.30
2019-05-17T15:58:19.742Z,18.43
2019-05-17T16:00:47.178Z,13.20
2019-05-17T16:03:14.503Z,15.57
2019-05-17T16:05:41.883Z,12.23
2019-05-17T16:08:09.271Z,11.87
2019-05-17T16:10:36.592Z,13.07
2019-05-17T16:13:03.960Z,13.80
2019-05-17T16:15:33.666Z,11.90
2019-05-17T16:18:00.998Z,14.03
2019-05-17T16:20:28.349Z,14.50
2019-05-17T16:22:55.825Z,14.00
2019-05-17T16:25:23.148Z,17.27
2019-05-17T16:27:50.490Z,12.90
2019-05-17T16:30:17.828Z,15.23
2019-05-17T16:32:45.213Z,17.23
2019-05-17T16:35:12.553Z,17.33
2019-05-17T16:37:39.928Z,14.47
2019-05-17T16:40:07.255Z,23.53
2019-05-17T16:42:34.634Z,23.77
2019-05-17T16:45:02.031Z,23.97
2019-05-17T16:47:29.649Z,17.63
2019-05-17T16:49:56.982Z,18.73
2019-05-17T16:52:24.306Z,17.90
2019-05-17T16:54:51.654Z,15.73
2019-05-17T16:57:18.989Z,17.70
2019-05-17T16:59:46.631Z,18.40
2019-05-17T17:02:14.021Z,16.13
2019-05-17T17:04:41.417Z,18.03
2019-05-17T17:07:08.791Z,13.57
2019-05-17T17:09:36.094Z,14.40
2019-05-17T17:12:03.430Z,17.80
2019-05-17T17:14:35.314Z,18.97
2019-05-17T17:17:09.867Z,14.43
2019-05-17T17:19:31.697Z,14.07
2019-05-17T17:21:59.066Z,13.43
2019-05-17T17:24:26.475Z,13.97
2019-05-17T17:26:53.829Z,13.37
2019-05-17T17:29:21.247Z,16.97
2019-05-17T17:31:48.629Z,10.70
2019-05-17T17:34:15.960Z,13.80
2019-05-17T17:36:46.155Z,12.10
2019-05-17T17:39:13.496Z,13.83
2019-05-17T17:41:40.854Z,12.80
2019-05-17T17:44:08.209Z,13.57
2019-05-17T17:46:35.523Z,13.40
2019-05-17T17:49:02.885Z,12.40
2019-05-17T17:51:30.239Z,11.13
2019-05-17T17:53:57.628Z,10.87
2019-05-17T17:56:24.988Z,11.47
2019-05-17T17:58:52.338Z,13.33
2019-05-17T18:01:19.720Z,11.00
2019-05-17T18:03:47.114Z,12.20
2019-05-17T18:06:14.533Z,11.20
2019-05-17T18:08:41.859Z,10.37
2019-05-17T18:11:09.255Z,13.13
2019-05-17T18:13:36.580Z,15.97
2019-05-17T18:16:03.929Z,12.90
2019-05-17T18:18:31.242Z,13.07
2019-05-17T18:20:58.610Z,10.73
2019-05-17T18:23:26.018Z,14.70
2019-05-17T18:25:53.413Z,12.77
2019-05-17T18:28:20.970Z,11.73
2019-05-17T18:30:48.551Z,11.20
2019-05-17T18:33:16.043Z,12.73
2019-05-17T18:35:43.379Z,13.57
2019-05-17T18:38:10.687Z,14.63
2019-05-17T18:40:38.021Z,12.20
2019-05-17T18:43:05.376Z,11.33
2019-05-17T18:45:32.711Z,12.83
2019-05-17T18:48:00.105Z,12.23
2019-05-17T18:50:28.283Z,13.87
2019-05-17T18:52:55.621Z,12.87
2019-05-17T18:55:22.960Z,15.23
2019-05-17T18:57:50.295Z,13.67
2019-05-17T19:00:17.692Z,11.40
2019-05-17T19:02:45.016Z,17.97
2019-05-17T19:05:12.436Z,13.57
2019-05-17T19:07:39.829Z,15.43
2019-05-17T19:10:07.537Z,19.30
2019-05-17T19:12:34.933Z,24.80
2019-05-17T19:15:02.552Z,24.00
2019-05-17T19:17:29.883Z,25.20
2019-05-17T19:19:57.264Z,23.13
2019-05-17T19:22:24.690Z,23.57
2019-05-17T19:24:51.969Z,21.80
2019-05-17T19:27:19.316Z,21.27
2019-05-17T19:29:46.632Z,19.63
2019-05-17T19:32:13.962Z,23.90
2019-05-17T19:34:41.379Z,20.73
2019-05-17T19:37:09.180Z,20.97
2019-05-17T19:39:36.505Z,25.10
2019-05-17T19:42:03.867Z,22.53
2019-05-17T19:44:31.181Z,25.17
2019-05-17T19:46:58.553Z,27.53
2019-05-17T19:49:25.835Z,25.93
2019-05-17T19:51:53.554Z,29.07
2019-05-17T19:54:20.837Z,30.40
2019-05-17T19:56:48.186Z,29.87
2019-05-17T19:59:15.512Z,27.70
2019-05-17T20:01:42.869Z,28.03
2019-05-17T20:04:10.708Z,25.70
2019-05-17T20:06:38.065Z,31.80
2019-05-17T20:09:05.883Z,29.43
2019-05-17T20:11:34.660Z,29.70
2019-05-17T20:14:02.394Z,29.40
2019-05-17T20:16:29.737Z,32.67
2019-05-17T20:18:57.046Z,34.20
2019-05-17T20:21:24.482Z,34.90
2019-05-17T20:23:51.860Z,38.03
2019-05-17T20:26:19.205Z,42.67
2019-05-17T20:28:46.605Z,41.20
2019-05-17T20:31:14.029Z,54.50
2019-05-17T20:33:41.426Z,48.50
2019-05-17T20:36:08.777Z,53.77
2019-05-17T20:38:36.071Z,49.90
2019-05-17T20:41:03.429Z,51.63
2019-05-17T20:43:30.732Z,53.03
2019-05-17T20:45:58.086Z,54.50
2019-05-17T20:48:26.157Z,48.63
2019-05-17T20:50:53.699Z,48.20
2019-05-17T20:53:21.016Z,48.77
2019-05-17T20:55:48.371Z,49.10
2019-05-17T20:58:15.806Z,50.23
2019-05-17T21:00:43.697Z,44.10
2019-05-17T21:03:13.867Z,46.27
2019-05-17T21:05:40.042Z,41.07
2019-05-17T21:08:07.415Z,34.60
2019-05-17T21:10:34.736Z,34.17
2019-05-17T21:13:02.107Z,39.57
2019-05-17T21:15:29.500Z,34.17
2019-05-17T21:17:56.852Z,33.50
2019-05-17T21:20:24.267Z,38.23
2019-05-17T21:22:51.739Z,32.93
2019-05-17T21:25:19.139Z,30.27
2019-05-17T21:27:46.487Z,27.00
2019-05-17T21:30:13.812Z,27.07
2019-05-17T21:32:41.245Z,27.43
2019-05-17T21:35:08.639Z,29.37
2019-05-17T21:37:35.996Z,28.13
2019-05-17T21:40:07.869Z,28.37
2019-05-17T21:42:35.206Z,31.17
2019-05-17T21:45:03.218Z,34.83
2019-05-17T21:47:30.778Z,39.40
2019-05-17T21:49:58.250Z,41.87
2019-05-17T21:52:25.699Z,34.00
2019-05-17T21:54:53.011Z,29.17
2019-05-17T21:57:20.445Z,36.43
2019-05-17T21:59:47.799Z,35.23
2019-05-17T22:02:15.129Z,37.93
2019-05-17T22:04:42.500Z,40.03
2019-05-17T22:07:09.980Z,41.33
2019-05-17T22:09:37.347Z,35.57
2019-05-17T22:12:12.250Z,39.70
2019-05-17T22:14:39.655Z,36.97
2019-05-17T22:17:06.946Z,37.40
2019-05-17T22:19:34.289Z,31.03
2019-05-17T22:22:01.616Z,32.40
2019-05-17T22:24:28.970Z,30.03
2019-05-17T22:26:56.309Z,31.17
2019-05-17T22:29:23.726Z,25.43
2019-05-17T22:31:51.054Z,24.63
2019-05-17T22:34:18.750Z,27.07
2019-05-17T22:36:46.114Z,30.33
2019-05-17T22:39:13.536Z,33.17
2019-05-17T22:41:40.911Z,34.40
2019-05-17T22:44:08.260Z,34.77
2019-05-17T22:46:36.647Z,36.10
2019-05-17T22:49:04.247Z,38.20
2019-05-17T22:51:31.638Z,41.53
2019-05-17T22:53:58.986Z,38.70
2019-05-17T22:56:26.449Z,42.77
2019-05-17T22:58:53.882Z,43.73
2019-05-17T23:01:21.203Z,47.60
2019-05-17T23:03:48.544Z,50.57
2019-05-17T23:06:16.209Z,53.73
2019-05-17T23:08:43.558Z,54.97
2019-05-17T23:11:10.944Z,57.13
2019-05-17T23:13:38.302Z,57.67
2019-05-17T23:16:07.271Z,55.87
2019-05-17T23:18:34.644Z,59.43
2019-05-17T23:21:02.067Z,53.83
2019-05-17T23:23:29.380Z,54.60
2019-05-17T23:25:56.735Z,52.80
2019-05-17T23:28:24.158Z,49.40
2019-05-17T23:30:51.517Z,45.20
2019-05-17T23:33:18.960Z,53.77
2019-05-17T23:35:46.368Z,51.57
2019-05-17T23:38:13.719Z,48.87
2019-05-17T23:40:41.078Z,55.33
2019-05-17T23:43:08.510Z,57.23
2019-05-17T23:45:35.837Z,55.77
2019-05-17T23:48:03.198Z,58.67
2019-05-17T23:50:30.559Z,55.83
2019-05-17T23:52:57.890Z,57.87
2019-05-17T23:55:25.406Z,56.37
2019-05-17T23:57:52.720Z,53.97
